Time;durP1;ratioP1;P1;durP2;ratioP2;P2;SDS_P1;SDS_P2;PMS_P1;PMS_P2;Temp;Humidity;BMP_temperature;BMP_pressure;BME280_temperature;BME280_humidity;BME280_pressure;Samples;Min_cycle;Max_cycle;Signal;HPM_P1;HPM_P2
2021/03/14 00:00:28;;;;;;;;;;;;;;;8.48;44.36;95700.66;1740075;82;20249;-53
2021/03/14 00:02:56;;;;;;;;;;;;;;;8.49;44.17;95698.44;1740541;82;20765;-53
2021/03/14 00:05:24;;;;;;;;;;;;;;;8.48;44.62;95690.32;1737457;82;20266;-53
2021/03/14 00:07:51;;;;;;;;;;;;;;;8.46;43.95;95687.04;1739917;82;21156;-53
2021/03/14 00:10:18;;;;;;;;;;;;;;;8.47;44.14;95700.33;1743587;82;20221;-54
2021/03/14 00:12:45;;;;;;;;;;;;;;;8.44;44.17;95696.69;1743202;82;20248;-54
2021/03/14 00:15:14;;;;;;;;;;;;;;;8.41;43.47;95696.40;1741231;82;20233;-53
2021/03/14 00:17:42;;;;;;;;;;;;;;;8.43;43.65;95700.20;1739844;82;20265;-55
2021/03/14 00:20:11;;;;;;;;;;;;;;;8.43;43.96;95680.80;1742627;81;21205;-53
2021/03/14 00:22:38;;;;;;;;;;;;;;;8.43;43.17;95687.27;1739964;82;20659;-54
2021/03/14 00:25:07;;;;;;;;;;;;;;;8.46;42.26;95675.41;1744040;81;20320;-53
2021/03/14 00:27:35;;;;;;;;;;;;;;;8.50;42.48;95681.16;1746503;81;20220;-53
2021/03/14 00:30:04;;;;;;;;;;;;;;;8.50;42.71;95681.16;1744774;81;20225;-54
2021/03/14 00:32:31;;;;;;;;;;;;;;;8.48;42.29;95683.86;1745204;81;21202;-53
2021/03/14 00:34:59;;;;;;;;;;;;;;;8.47;42.26;95695.16;1752820;81;20217;-53
2021/03/14 00:37:26;;;;;;;;;;;;;;;8.46;42.41;95709.02;1746688;81;20260;-53
2021/03/14 00:39:55;;;;;;;;;;;;;;;8.44;42.31;95705.73;1741095;81;20245;-53
2021/03/14 00:42:23;;;;;;;;;;;;;;;8.42;42.44;95692.89;1748902;81;20565;-52
2021/03/14 00:44:50;;;;;;;;;;;;;;;8.41;42.19;95687.35;1752703;81;22823;-53
2021/03/14 00:47:18;;;;;;;;;;;;;;;8.38;42.24;95696.63;1746266;81;20304;-52
2021/03/14 00:49:46;;;;;;;;;;;;;;;8.36;42.75;95704.16;1742216;81;20251;-52
2021/03/14 00:52:13;;;;;;;;;;;;;;;8.32;42.89;95688.52;1747789;81;20873;-52
2021/03/14 00:54:42;;;;;;;;;;;;;;;8.27;43.13;95687.13;1751751;80;20489;-53
2021/03/14 00:57:09;;;;;;;;;;;;;;;8.21;43.17;95685.00;1747658;81;23724;-52
2021/03/14 00:59:36;;;;;;;;;;;;;;;8.12;43.48;95675.34;1749885;81;20213;-53
2021/03/14 01:02:05;;;;;;;;;;;;;;;8.05;43.66;95678.05;1752534;81;20221;-54
2021/03/14 01:04:33;;;;;;;;;;;;;;;7.99;43.78;95670.27;1742024;81;20267;-53
2021/03/14 01:07:01;;;;;;;;;;;;;;;7.98;43.92;95670.41;1740344;81;20223;-53
2021/03/14 01:09:29;;;;;;;;;;;;;;;7.96;43.89;95664.06;1752783;81;21252;-53
2021/03/14 01:11:56;;;;;;;;;;;;;;;7.93;44.05;95656.06;1747668;81;20275;-54
2021/03/14 01:14:35;;;;;;;;;;;;;;;7.92;44.24;95653.11;1746021;80;20229;-55
2021/03/14 01:17:04;;;;;;;;;;;;;;;7.89;44.25;95652.53;1746365;81;20207;-55
2021/03/14 01:19:32;;;;;;;;;;;;;;;7.89;44.44;95639.61;1753138;81;20232;-54
2021/03/14 01:22:00;;;;;;;;;;;;;;;7.88;44.58;95637.98;1745915;81;21257;-54
2021/03/14 01:24:27;;;;;;;;;;;;;;;7.85;44.49;95629.98;1748859;81;20208;-54
2021/03/14 01:26:54;;;;;;;;;;;;;;;7.82;44.82;95627.63;1744395;82;20225;-53
2021/03/14 01:29:21;;;;;;;;;;;;;;;7.77;45.06;95613.43;1747462;82;20299;-54
2021/03/14 01:31:49;;;;;;;;;;;;;;;7.71;45.32;95613.41;1737700;82;20218;-54
2021/03/14 01:34:16;;;;;;;;;;;;;;;7.67;45.62;95608.94;1743864;82;23619;-54
2021/03/14 01:36:43;;;;;;;;;;;;;;;7.64;46.11;95604.00;1743778;82;20565;-54
2021/03/14 01:39:11;;;;;;;;;;;;;;;7.59;46.64;95598.84;1746728;82;20222;-53
2021/03/14 01:41:39;;;;;;;;;;;;;;;7.53;47.00;95584.16;1741361;82;20219;-53
2021/03/14 01:44:06;;;;;;;;;;;;;;;7.49;47.33;95583.21;1746915;82;20590;-53
2021/03/14 01:46:33;;;;;;;;;;;;;;;7.46;47.28;95579.09;1746047;82;21419;-53
2021/03/14 01:49:02;;;;;;;;;;;;;;;7.43;47.29;95569.46;1736663;81;20514;-54
2021/03/14 01:51:33;;;;;;;;;;;;;;;7.41;46.93;95566.19;1772656;80;20245;-54
2021/03/14 01:54:01;;;;;;;;;;;;;;;7.43;46.81;95559.14;1743824;82;20232;-54
2021/03/14 01:56:28;;;;;;;;;;;;;;;7.44;46.72;95561.61;1746738;81;20308;-53
2021/03/14 01:58:54;;;;;;;;;;;;;;;7.44;46.68;95556.45;1744167;82;21057;-54
2021/03/14 02:01:23;;;;;;;;;;;;;;;7.44;46.68;95557.73;1744088;82;38372;-54
2021/03/14 02:03:50;;;;;;;;;;;;;;;7.44;46.38;95546.60;1740451;82;20229;-53
2021/03/14 02:06:17;;;;;;;;;;;;;;;7.45;46.11;95549.52;1744696;82;20254;-54
2021/03/14 02:08:45;;;;;;;;;;;;;;;7.46;46.01;95555.05;1734012;82;20256;-53
2021/03/14 02:11:12;;;;;;;;;;;;;;;7.46;46.00;95555.86;1739477;82;22278;-52
2021/03/14 02:13:42;;;;;;;;;;;;;;;7.47;45.88;95551.06;1748046;81;20514;-53
2021/03/14 02:16:12;;;;;;;;;;;;;;;7.47;45.80;95542.03;1746868;82;20497;-53
2021/03/14 02:18:41;;;;;;;;;;;;;;;7.50;44.79;95535.80;1744154;82;20244;-53
2021/03/14 02:21:08;;;;;;;;;;;;;;;7.53;45.22;95529.12;1743607;82;20587;-52
2021/03/14 02:23:48;;;;;;;;;;;;;;;7.53;44.99;95527.37;1742558;82;21209;-52
2021/03/14 02:26:26;;;;;;;;;;;;;;;7.54;45.07;95525.13;1751109;81;20221;-53
2021/03/14 02:28:54;;;;;;;;;;;;;;;7.57;44.94;95523.28;1749204;81;20256;-53
2021/03/14 02:31:23;;;;;;;;;;;;;;;7.54;44.94;95515.28;1742187;81;20212;-53
2021/03/14 02:33:54;;;;;;;;;;;;;;;7.54;44.82;95511.41;1747794;81;20217;-53
2021/03/14 02:36:22;;;;;;;;;;;;;;;7.54;44.77;95498.03;1749614;81;21214;-53
2021/03/14 02:38:49;;;;;;;;;;;;;;;7.54;44.57;95494.63;1745197;81;20507;-54
2021/03/14 02:41:16;;;;;;;;;;;;;;;7.55;44.45;95500.16;1746179;81;20993;-53
2021/03/14 02:43:43;;;;;;;;;;;;;;;7.53;44.32;95491.23;1752264;81;20311;-53
2021/03/14 02:46:11;;;;;;;;;;;;;;;7.53;44.04;95492.53;1743776;81;22044;-52
2021/03/14 02:48:38;;;;;;;;;;;;;;;7.54;43.91;95494.16;1737523;81;23599;-53
2021/03/14 02:51:05;;;;;;;;;;;;;;;7.54;44.17;95492.86;1727813;81;20237;-53
2021/03/14 02:53:33;;;;;;;;;;;;;;;7.55;43.60;95482.09;1745622;81;20252;-53
2021/03/14 02:56:00;;;;;;;;;;;;;;;7.57;43.44;95482.79;1749536;80;20241;-53
2021/03/14 02:58:27;;;;;;;;;;;;;;;7.63;43.21;95487.94;1743613;81;20276;-53
2021/03/14 03:00:55;;;;;;;;;;;;;;;7.67;43.08;95492.75;1743378;81;22585;-52
2021/03/14 03:03:23;;;;;;;;;;;;;;;7.71;42.88;95497.21;1751951;81;20232;-52
2021/03/14 03:05:59;;;;;;;;;;;;;;;7.73;42.92;95491.48;1751713;81;20212;-52
2021/03/14 03:08:26;;;;;;;;;;;;;;;7.77;42.46;95489.48;1748674;81;20271;-54
2021/03/14 03:10:56;;;;;;;;;;;;;;;7.80;42.44;95482.31;1748413;81;20488;-53
2021/03/14 03:13:25;;;;;;;;;;;;;;;7.82;42.73;95475.27;1750315;81;21208;-55
2021/03/14 03:15:54;;;;;;;;;;;;;;;7.86;42.11;95470.23;1740024;81;21933;-54
2021/03/14 03:18:21;;;;;;;;;;;;;;;7.93;41.24;95470.57;1767194;80;20215;-53
2021/03/14 03:20:50;;;;;;;;;;;;;;;8.00;41.15;95463.16;1751483;81;20229;-53
2021/03/14 03:23:17;;;;;;;;;;;;;;;8.06;41.38;95467.86;1748125;81;20266;-53
2021/03/14 03:25:45;;;;;;;;;;;;;;;8.12;41.11;95475.10;1749165;81;22352;-53
2021/03/14 03:28:13;;;;;;;;;;;;;;;8.18;41.10;95473.81;1745441;82;20209;-54
2021/03/14 03:30:41;;;;;;;;;;;;;;;8.20;41.00;95459.00;1743837;82;20216;-52
2021/03/14 03:33:09;;;;;;;;;;;;;;;8.20;40.88;95459.81;1748543;82;20908;-53
2021/03/14 03:35:37;;;;;;;;;;;;;;;8.22;41.27;95460.54;1747951;81;20278;-54
2021/03/14 03:38:05;;;;;;;;;;;;;;;8.26;41.26;95464.50;1750589;82;20753;-53
2021/03/14 03:40:35;;;;;;;;;;;;;;;8.32;41.50;95456.72;1748262;82;20246;-53
2021/03/14 03:43:06;;;;;;;;;;;;;;;8.40;41.63;95453.05;1723057;81;20244;-54
2021/03/14 03:45:38;;;;;;;;;;;;;;;8.47;41.14;95458.14;1739535;80;20218;-53
2021/03/14 03:48:07;;;;;;;;;;;;;;;8.52;40.97;95457.77;1739122;80;20231;-53
2021/03/14 03:50:36;;;;;;;;;;;;;;;8.56;41.16;95447.52;1732559;82;21375;-53
2021/03/14 03:53:04;;;;;;;;;;;;;;;8.58;40.75;95448.20;1743798;82;20280;-53
2021/03/14 03:55:32;;;;;;;;;;;;;;;8.56;40.79;95453.98;1744487;82;20497;-54
2021/03/14 03:57:59;;;;;;;;;;;;;;;8.54;40.68;95457.17;1730881;81;20339;-54
2021/03/14 04:00:26;;;;;;;;;;;;;;;8.53;40.65;95458.09;1739945;82;20224;-54
2021/03/14 04:02:53;;;;;;;;;;;;;;;8.54;40.87;95461.53;1708363;82;22132;-54
2021/03/14 04:05:21;;;;;;;;;;;;;;;8.56;40.93;95458.34;1739587;82;20223;-53
2021/03/14 04:07:49;;;;;;;;;;;;;;;8.57;40.88;95459.96;1742845;82;20292;-54
2021/03/14 04:10:21;;;;;;;;;;;;;;;8.59;40.84;95464.08;1735484;82;20780;-53
2021/03/14 04:12:49;;;;;;;;;;;;;;;8.62;40.98;95469.48;1723682;82;20285;-54
2021/03/14 04:15:20;;;;;;;;;;;;;;;8.65;40.96;95464.05;1701941;83;22127;-54
2021/03/14 04:17:47;;;;;;;;;;;;;;;8.65;40.93;95464.05;1740303;81;20221;-53
2021/03/14 04:20:25;;;;;;;;;;;;;;;8.65;40.87;95460.16;1742492;82;20518;-54
2021/03/14 04:22:54;;;;;;;;;;;;;;;8.62;41.07;95461.25;1747260;82;20248;-54
2021/03/14 04:25:22;;;;;;;;;;;;;;;8.63;40.92;95454.30;1736168;81;20286;-53
2021/03/14 04:27:50;;;;;;;;;;;;;;;8.61;40.87;95453.61;1751247;81;21168;-53
2021/03/14 04:30:18;;;;;;;;;;;;;;;8.62;41.20;95455.27;1745912;81;20243;-54
2021/03/14 04:32:45;;;;;;;;;;;;;;;8.63;40.91;95454.30;1749213;81;20562;-54
2021/03/14 04:35:13;;;;;;;;;;;;;;;8.61;40.81;95453.13;1771009;80;20229;-54
2021/03/14 04:37:40;;;;;;;;;;;;;;;8.62;40.80;95460.44;1743210;81;20225;-53
2021/03/14 04:40:09;;;;;;;;;;;;;;;8.65;40.76;95461.45;1742550;81;21707;-52
2021/03/14 04:42:38;;;;;;;;;;;;;;;8.69;40.84;95464.16;1747230;81;20236;-56
2021/03/14 04:45:06;;;;;;;;;;;;;;;8.74;40.07;95472.36;1748557;81;20487;-54
2021/03/14 04:47:34;;;;;;;;;;;;;;;8.76;39.97;95479.52;1749392;81;20828;-54
2021/03/14 04:50:04;;;;;;;;;;;;;;;8.76;40.25;95491.16;1749524;81;20399;-54
2021/03/14 04:52:32;;;;;;;;;;;;;;;8.66;40.51;95480.73;1746025;81;22123;-54
2021/03/14 04:54:59;;;;;;;;;;;;;;;8.46;41.23;95473.28;1743650;81;20222;-55
2021/03/14 04:57:27;;;;;;;;;;;;;;;8.17;41.47;95466.52;1749825;81;20241;-54
2021/03/14 04:59:54;;;;;;;;;;;;;;;8.08;42.08;95477.59;1743964;80;20252;-53
2021/03/14 05:02:22;;;;;;;;;;;;;;;8.06;42.04;95464.80;1749765;81;20245;-53
2021/03/14 05:04:50;;;;;;;;;;;;;;;8.03;42.05;95482.30;1751024;81;21207;-54
2021/03/14 05:07:18;;;;;;;;;;;;;;;8.02;42.16;95481.94;1729907;81;20233;-53
2021/03/14 05:09:45;;;;;;;;;;;;;;;8.01;42.00;95485.00;1742000;81;20238;-54
2021/03/14 05:12:13;;;;;;;;;;;;;;;8.05;41.76;95493.33;1743140;81;20286;-54
2021/03/14 05:14:40;;;;;;;;;;;;;;;8.06;41.70;95490.63;1745847;81;20316;-54
2021/03/14 05:17:07;;;;;;;;;;;;;;;8.14;42.14;95502.11;1745219;81;21362;-53
2021/03/14 05:19:35;;;;;;;;;;;;;;;8.20;42.14;95501.16;1746722;81;20248;-52
2021/03/14 05:22:03;;;;;;;;;;;;;;;8.27;41.95;95498.47;1749431;81;20224;-52
2021/03/14 05:24:30;;;;;;;;;;;;;;;8.35;41.92;95504.78;1749293;81;20313;-53
2021/03/14 05:27:00;;;;;;;;;;;;;;;8.44;41.89;95502.32;1743670;80;20269;-54
2021/03/14 05:29:28;;;;;;;;;;;;;;;8.54;41.58;95506.29;1733778;82;22135;-54
2021/03/14 05:31:56;;;;;;;;;;;;;;;8.58;41.47;95508.97;1739934;82;20242;-55
2021/03/14 05:34:24;;;;;;;;;;;;;;;8.61;41.54;95511.80;1732418;82;20252;-54
2021/03/14 05:36:52;;;;;;;;;;;;;;;8.64;41.58;95502.50;1734990;82;20233;-52
2021/03/14 05:39:19;;;;;;;;;;;;;;;8.68;41.74;95509.53;1739976;82;21573;-53
2021/03/14 05:41:46;;;;;;;;;;;;;;;8.74;41.92;95506.47;1729403;80;22028;-53
2021/03/14 05:44:14;;;;;;;;;;;;;;;8.77;42.28;95497.17;1742572;82;20289;-52
2021/03/14 05:46:41;;;;;;;;;;;;;;;8.82;42.41;95511.84;1737283;82;20240;-53
2021/03/14 05:49:09;;;;;;;;;;;;;;;8.86;42.48;95528.73;1741534;82;20224;-54
2021/03/14 05:51:43;;;;;;;;;;;;;;;8.86;41.97;95520.98;1740604;82;20241;-53
2021/03/14 05:54:12;;;;;;;;;;;;;;;8.82;41.91;95519.12;1743434;82;21374;-53
2021/03/14 05:56:42;;;;;;;;;;;;;;;8.77;42.27;95521.73;1724716;81;20230;-53
2021/03/14 05:59:09;;;;;;;;;;;;;;;8.70;42.35;95517.53;1741162;82;20492;-53
2021/03/14 06:01:37;;;;;;;;;;;;;;;8.63;42.59;95516.36;1718924;82;20255;-54
2021/03/14 06:04:07;;;;;;;;;;;;;;;8.62;42.84;95527.66;1746290;82;20228;-52
2021/03/14 06:06:42;;;;;;;;;;;;;;;8.62;42.81;95525.89;1739109;82;21362;-53
2021/03/14 06:09:16;;;;;;;;;;;;;;;8.57;43.59;95527.19;1741642;82;20249;-52
2021/03/14 06:11:43;;;;;;;;;;;;;;;8.46;44.48;95531.45;1739375;82;20283;-53
2021/03/14 06:14:10;;;;;;;;;;;;;;;8.40;44.95;95538.36;1736106;82;20483;-53
2021/03/14 06:16:37;;;;;;;;;;;;;;;8.39;45.58;95538.02;1746151;82;20229;-53
2021/03/14 06:19:05;;;;;;;;;;;;;;;8.39;46.42;95530.75;1743634;82;21196;-53
2021/03/14 06:21:33;;;;;;;;;;;;;;;8.37;46.76;95524.86;1743370;82;20229;-53
2021/03/14 06:24:05;;;;;;;;;;;;;;;8.41;46.82;95521.92;1745494;82;20217;-53
2021/03/14 06:26:46;;;;;;;;;;;;;;;8.47;46.98;95519.36;1740284;82;20488;-53
2021/03/14 06:29:21;;;;;;;;;;;;;;;8.55;47.05;95513.56;1744765;82;20220;-53
2021/03/14 06:31:51;;;;;;;;;;;;;;;8.59;47.21;95509.33;1737915;81;21209;-53
2021/03/14 06:34:38;;;;;;;;;;;;;;;8.60;47.34;95512.72;1745223;81;20217;-53
2021/03/14 06:37:14;;;;;;;;;;;;;;;8.64;47.56;95505.09;1737211;82;20233;-53
2021/03/14 06:39:45;;;;;;;;;;;;;;;8.63;47.88;95492.64;1745458;82;20224;-54
2021/03/14 06:42:30;;;;;;;;;;;;;;;8.66;48.12;95485.09;1736761;82;20276;-53
2021/03/14 06:45:03;;;;;;;;;;;;;;;8.65;48.53;95486.86;1718598;82;21221;-53
2021/03/14 06:47:40;;;;;;;;;;;;;;;8.63;48.94;95478.41;1744196;82;20225;-52
2021/03/14 06:50:10;;;;;;;;;;;;;;;8.58;49.27;95492.64;1746310;82;20224;-51
2021/03/14 06:52:37;;;;;;;;;;;;;;;8.53;50.15;95502.05;1736641;82;20906;-52
2021/03/14 06:55:08;;;;;;;;;;;;;;;8.43;50.42;95492.10;1748684;80;20248;-53
2021/03/14 06:57:46;;;;;;;;;;;;;;;8.38;50.91;95503.25;1753480;80;21146;-52
2021/03/14 07:00:17;;;;;;;;;;;;;;;8.32;51.08;95489.03;1746287;81;20265;-52
2021/03/14 07:02:47;;;;;;;;;;;;;;;8.34;51.54;95498.80;1738141;82;20224;-52
2021/03/14 07:05:15;;;;;;;;;;;;;;;8.40;51.38;95480.67;1772677;80;20232;-52
2021/03/14 07:07:44;;;;;;;;;;;;;;;8.81;50.73;95470.09;1722152;81;20240;-51
2021/03/14 07:10:14;;;;;;;;;;;;;;;9.45;49.69;95472.20;1767499;81;21039;-52
2021/03/14 07:12:45;;;;;;;;;;;;;;;9.85;48.82;95461.05;1776449;80;20228;-52
2021/03/14 07:15:18;;;;;;;;;;;;;;;10.12;48.14;95465.14;1789332;80;20204;-52
2021/03/14 07:17:56;;;;;;;;;;;;;;;10.46;47.34;95470.02;1791543;80;20220;-52
2021/03/14 07:20:29;;;;;;;;;;;;;;;10.94;46.42;95464.49;1790993;80;20365;-52
2021/03/14 07:23:01;;;;;;;;;;;;;;;12.10;44.54;95464.30;1780433;80;21192;-53
2021/03/14 07:25:30;;;;;;;;;;;;;;;13.80;41.69;95464.24;1767464;80;20210;-52
2021/03/14 07:27:57;;;;;;;;;;;;;;;15.50;38.18;95466.96;1765595;80;20222;-53
2021/03/14 07:30:27;;;;;;;;;;;;;;;16.96;35.02;95474.87;1737087;82;20212;-53
2021/03/14 07:32:54;;;;;;;;;;;;;;;18.29;32.33;95458.14;1761094;80;20218;-51
2021/03/14 07:35:22;;;;;;;;;;;;;;;19.37;28.15;95451.13;1740296;81;21274;-51
2021/03/14 07:37:51;;;;;;;;;;;;;;;19.08;27.77;95438.98;1730931;83;20570;-52
2021/03/14 07:40:20;;;;;;;;;;;;;;;18.32;29.10;95436.28;1738360;82;20291;-52
2021/03/14 07:42:49;;;;;;;;;;;;;;;17.80;28.97;95439.84;1741117;81;20492;-52
2021/03/14 07:45:17;;;;;;;;;;;;;;;16.55;30.70;95431.91;1710017;82;20526;-52
2021/03/14 07:47:44;;;;;;;;;;;;;;;15.87;32.54;95432.91;1780594;80;21138;-52
2021/03/14 07:50:17;;;;;;;;;;;;;;;15.88;33.28;95425.37;1741188;82;20220;-52
2021/03/14 07:52:44;;;;;;;;;;;;;;;16.17;33.01;95421.33;1779347;80;20198;-52
2021/03/14 07:55:19;;;;;;;;;;;;;;;16.28;32.91;95422.25;1770531;80;20925;-53
2021/03/14 07:57:48;;;;;;;;;;;;;;;16.55;33.36;95411.76;1759393;81;20260;-54
2021/03/14 08:00:29;;;;;;;;;;;;;;;17.77;32.09;95414.77;1761485;81;21194;-53
2021/03/14 08:03:00;;;;;;;;;;;;;;;18.58;30.68;95404.23;1764116;81;20234;-53
2021/03/14 08:05:41;;;;;;;;;;;;;;;18.85;30.30;95411.08;1764165;81;20215;-52
2021/03/14 08:08:13;;;;;;;;;;;;;;;18.48;30.42;95419.98;1733925;82;20239;-52
2021/03/14 08:10:42;;;;;;;;;;;;;;;18.08;30.94;95416.41;1734053;82;20328;-52
2021/03/14 08:13:17;;;;;;;;;;;;;;;17.52;31.87;95418.17;1754885;81;21213;-52
2021/03/14 08:15:47;;;;;;;;;;;;;;;17.25;31.72;95429.59;1742190;81;22080;-53
2021/03/14 08:18:35;;;;;;;;;;;;;;;17.79;31.54;95423.78;1742896;81;20222;-53
2021/03/14 08:21:04;;;;;;;;;;;;;;;18.62;30.77;95416.97;1764234;81;20246;-53
2021/03/14 08:23:41;;;;;;;;;;;;;;;19.00;29.95;95416.26;1755974;81;20294;-52
2021/03/14 08:26:32;;;;;;;;;;;;;;;18.71;29.35;95417.98;1733969;82;21210;-53
2021/03/14 08:29:05;;;;;;;;;;;;;;;17.47;30.97;95417.91;1738280;82;20561;-56
2021/03/14 08:31:53;;;;;;;;;;;;;;;16.16;33.11;95433.58;1731059;83;20227;-53
2021/03/14 08:34:30;;;;;;;;;;;;;;;15.33;34.64;95419.61;1730668;83;20239;-54
2021/03/14 08:37:00;;;;;;;;;;;;;;;15.22;35.14;95418.98;1762489;81;20278;-53
2021/03/14 08:39:40;;;;;;;;;;;;;;;15.09;35.44;95405.11;1742779;81;21314;-54
2021/03/14 08:42:16;;;;;;;;;;;;;;;14.79;36.09;95418.36;1736656;82;20732;-53
2021/03/14 08:44:46;;;;;;;;;;;;;;;14.49;36.36;95427.59;1715413;83;20222;-53
2021/03/14 08:47:25;;;;;;;;;;;;;;;14.25;36.88;95428.37;1763568;81;20502;-53
2021/03/14 08:50:01;;;;;;;;;;;;;;;13.99;37.55;95433.98;1764021;81;20249;-54
2021/03/14 08:52:30;;;;;;;;;;;;;;;13.80;38.06;95429.86;1763400;81;22273;-53
2021/03/14 08:55:03;;;;;;;;;;;;;;;13.76;38.21;95436.84;1706888;81;20212;-52
2021/03/14 08:57:32;;;;;;;;;;;;;;;13.85;38.51;95433.77;1745977;81;20505;-53
2021/03/14 09:00:02;;;;;;;;;;;;;;;13.99;38.16;95430.57;1763621;81;20869;-53
2021/03/14 09:02:33;;;;;;;;;;;;;;;14.07;38.15;95441.03;1764122;81;20250;-53
2021/03/14 09:05:12;;;;;;;;;;;;;;;14.16;38.08;95425.75;1761499;81;21148;-53
2021/03/14 09:07:58;;;;;;;;;;;;;;;14.08;38.52;95438.77;1758474;81;20243;-53
2021/03/14 09:10:26;;;;;;;;;;;;;;;13.79;38.95;95428.21;1768790;81;20251;-54
2021/03/14 09:13:00;;;;;;;;;;;;;;;13.57;39.73;95436.59;1726803;82;20241;-53
2021/03/14 09:15:34;;;;;;;;;;;;;;;13.47;40.15;95428.89;1730403;82;20247;-52
2021/03/14 09:18:06;;;;;;;;;;;;;;;13.18;40.55;95428.67;1766413;81;21198;-53
2021/03/14 09:20:35;;;;;;;;;;;;;;;13.17;40.68;95418.41;1771711;81;20238;-53
2021/03/14 09:23:07;;;;;;;;;;;;;;;13.31;40.47;95413.13;1768982;80;20415;-54
2021/03/14 09:25:46;;;;;;;;;;;;;;;13.76;40.17;95409.47;1770827;81;20233;-53
2021/03/14 09:28:13;;;;;;;;;;;;;;;14.12;39.29;95418.39;1770666;81;20214;-54
2021/03/14 09:30:47;;;;;;;;;;;;;;;14.19;39.04;95411.55;1771852;81;20230;-52
2021/03/14 09:33:15;;;;;;;;;;;;;;;14.39;38.53;95409.50;1769268;81;20921;-53
2021/03/14 09:35:50;;;;;;;;;;;;;;;14.36;37.86;95412.42;1729710;82;20224;-53
2021/03/14 09:38:19;;;;;;;;;;;;;;;14.25;38.04;95411.42;1740809;82;20291;-53
2021/03/14 09:41:01;;;;;;;;;;;;;;;14.18;38.19;95408.14;1740152;82;20279;-53
2021/03/14 09:43:29;;;;;;;;;;;;;;;14.25;38.39;95408.31;1763951;81;21369;-52
2021/03/14 09:46:07;;;;;;;;;;;;;;;14.48;37.93;95416.84;1748264;81;20500;-52
2021/03/14 09:48:40;;;;;;;;;;;;;;;14.62;37.79;95417.55;1769443;80;20377;-52
2021/03/14 09:51:09;;;;;;;;;;;;;;;14.99;37.48;95409.70;1771611;81;20217;-52
2021/03/14 09:53:38;;;;;;;;;;;;;;;15.42;36.46;95400.33;1771131;80;20226;-53
2021/03/14 09:56:12;;;;;;;;;;;;;;;15.73;35.89;95410.04;1760257;79;21207;-53
2021/03/14 09:58:46;;;;;;;;;;;;;;;15.81;35.37;95404.31;1768002;81;20214;-53
2021/03/14 10:01:14;;;;;;;;;;;;;;;15.63;35.83;95413.66;1770139;81;20251;-53
2021/03/14 10:03:42;;;;;;;;;;;;;;;15.64;35.98;95401.39;1771872;80;20517;-53
2021/03/14 10:06:19;;;;;;;;;;;;;;;15.80;35.33;95410.52;1760048;80;20225;-52
2021/03/14 10:08:48;;;;;;;;;;;;;;;15.94;35.27;95401.16;1776308;80;21214;-53
2021/03/14 10:11:16;;;;;;;;;;;;;;;15.98;35.64;95423.86;1776734;80;20494;-52
2021/03/14 10:13:55;;;;;;;;;;;;;;;15.99;35.06;95421.58;1773969;80;20496;-54
2021/03/14 10:16:27;;;;;;;;;;;;;;;15.71;35.68;95414.63;1771632;80;20307;-54
2021/03/14 10:18:59;;;;;;;;;;;;;;;15.26;36.61;95418.98;1780305;80;20481;-53
2021/03/14 10:21:28;;;;;;;;;;;;;;;14.73;37.32;95423.73;1790585;80;21440;-52
2021/03/14 10:24:17;;;;;;;;;;;;;;;14.47;38.26;95404.29;1748806;81;20214;-52
2021/03/14 10:26:59;;;;;;;;;;;;;;;14.52;38.46;95419.44;1773579;80;20221;-53
2021/03/14 10:29:31;;;;;;;;;;;;;;;14.60;38.55;95400.41;1770441;81;20881;-53
2021/03/14 10:32:23;;;;;;;;;;;;;;;15.15;37.61;95411.48;1774335;80;21651;-52
2021/03/14 10:34:54;;;;;;;;;;;;;;;15.38;36.98;95394.62;1775923;80;20511;-52
2021/03/14 10:37:28;;;;;;;;;;;;;;;15.46;37.08;95382.03;1779121;80;20719;-54
2021/03/14 10:40:15;;;;;;;;;;;;;;;15.54;36.75;95373.33;1771576;81;20217;-53
2021/03/14 10:42:44;;;;;;;;;;;;;;;15.50;36.83;95392.45;1759674;81;20240;-53
2021/03/14 10:45:19;;;;;;;;;;;;;;;15.52;37.20;95380.53;1777592;80;20207;-53
2021/03/14 10:48:04;;;;;;;;;;;;;;;15.85;36.67;95361.63;1778072;80;21191;-53
2021/03/14 10:50:39;;;;;;;;;;;;;;;16.04;36.11;95341.27;1764230;80;20234;-53
2021/03/14 10:53:15;;;;;;;;;;;;;;;16.29;35.85;95343.23;1763648;80;20220;-52
2021/03/14 10:55:46;;;;;;;;;;;;;;;16.73;35.31;95338.14;1759199;80;22288;-53
2021/03/14 10:58:18;;;;;;;;;;;;;;;17.27;34.17;95354.70;1757177;80;20511;-54
2021/03/14 11:00:59;;;;;;;;;;;;;;;17.34;34.04;95348.23;1757433;80;21210;-52
2021/03/14 11:03:36;;;;;;;;;;;;;;;17.14;34.21;95350.55;1763935;81;20422;-52
2021/03/14 11:06:11;;;;;;;;;;;;;;;17.12;34.45;95338.94;1718745;80;20222;-52
2021/03/14 11:09:03;;;;;;;;;;;;;;;17.04;34.24;95358.20;1758855;80;20210;-54
2021/03/14 11:11:44;;;;;;;;;;;;;;;16.43;34.88;95353.43;1755883;81;20230;-52
2021/03/14 11:14:39;;;;;;;;;;;;;;;15.83;35.88;95355.75;1701912;84;21210;-52
2021/03/14 11:17:15;;;;;;;;;;;;;;;15.35;36.89;95346.60;1760389;81;20219;-53
2021/03/14 11:19:47;;;;;;;;;;;;;;;14.75;37.94;95336.59;1762863;81;20679;-53
2021/03/14 11:22:16;;;;;;;;;;;;;;;14.22;38.94;95349.93;1763936;81;20214;-53
2021/03/14 11:24:45;;;;;;;;;;;;;;;13.82;39.71;95363.22;1764303;80;20230;-55
2021/03/14 11:27:13;;;;;;;;;;;;;;;13.57;40.19;95362.33;1763949;81;21360;-54
2021/03/14 11:29:42;;;;;;;;;;;;;;;13.25;40.76;95358.55;1744966;81;20226;-53
2021/03/14 11:32:14;;;;;;;;;;;;;;;12.98;41.41;95365.56;1763820;81;20496;-54
2021/03/14 11:34:45;;;;;;;;;;;;;;;12.86;41.56;95361.09;1763655;81;20215;-53
2021/03/14 11:37:31;;;;;;;;;;;;;;;12.75;41.91;95364.44;1762248;81;20533;-54
2021/03/14 11:40:01;;;;;;;;;;;;;;;12.62;42.25;95364.82;1759192;81;21409;-54
2021/03/14 11:42:30;;;;;;;;;;;;;;;12.48;42.45;95375.27;1759679;81;20286;-55
2021/03/14 11:45:06;;;;;;;;;;;;;;;12.35;42.84;95382.14;1732171;81;20245;-54
2021/03/14 11:47:34;;;;;;;;;;;;;;;12.23;43.24;95385.45;1763438;80;20219;-53
2021/03/14 11:50:08;;;;;;;;;;;;;;;12.11;43.10;95378.34;1763581;81;20222;-55
2021/03/14 11:52:36;;;;;;;;;;;;;;;11.95;43.70;95385.48;1763442;81;21368;-53
2021/03/14 11:55:05;;;;;;;;;;;;;;;11.93;43.80;95390.52;1763733;80;20648;-54
2021/03/14 11:57:33;;;;;;;;;;;;;;;11.93;43.84;95387.42;1759726;81;20534;-55
2021/03/14 12:00:03;;;;;;;;;;;;;;;11.96;43.64;95391.03;1755782;81;20218;-56
2021/03/14 12:02:33;;;;;;;;;;;;;;;11.97;43.96;95393.14;1755862;81;20238;-55
2021/03/14 12:05:20;;;;;;;;;;;;;;;12.07;43.64;95378.78;1748033;81;20593;-54
2021/03/14 12:07:48;;;;;;;;;;;;;;;12.09;43.23;95381.59;1767152;81;20218;-57
2021/03/14 12:10:17;;;;;;;;;;;;;;;11.95;43.78;95380.78;1721775;81;20234;-54
2021/03/14 12:12:45;;;;;;;;;;;;;;;11.86;44.14;95377.25;1764847;80;20342;-56
2021/03/14 12:15:16;;;;;;;;;;;;;;;11.84;43.96;95379.19;1766480;81;20239;-54
2021/03/14 12:17:46;;;;;;;;;;;;;;;11.82;44.09;95384.98;1766537;81;22015;-53
2021/03/14 12:20:22;;;;;;;;;;;;;;;11.90;44.32;95381.67;1775382;80;20269;-56
2021/03/14 12:22:54;;;;;;;;;;;;;;;12.04;43.65;95363.48;1756489;80;20493;-54
2021/03/14 12:25:24;;;;;;;;;;;;;;;12.02;43.60;95387.51;1756933;81;20939;-54
2021/03/14 12:27:52;;;;;;;;;;;;;;;12.07;43.59;95387.42;1771398;80;20235;-53
2021/03/14 12:30:20;;;;;;;;;;;;;;;12.11;43.43;95382.25;1770815;80;21353;-54
2021/03/14 12:32:48;;;;;;;;;;;;;;;12.13;43.39;95371.70;1775420;80;20238;-54
2021/03/14 12:35:18;;;;;;;;;;;;;;;12.42;43.08;95375.39;1756807;80;20231;-53
2021/03/14 12:37:45;;;;;;;;;;;;;;;12.84;42.27;95362.20;1768699;80;20759;-53
2021/03/14 12:40:14;;;;;;;;;;;;;;;13.20;41.53;95369.92;1764314;81;20205;-54
2021/03/14 12:42:41;;;;;;;;;;;;;;;13.61;40.85;95380.08;1766292;81;23531;-55
2021/03/14 12:45:12;;;;;;;;;;;;;;;14.04;39.14;95380.05;1765533;81;20214;-52
2021/03/14 12:47:40;;;;;;;;;;;;;;;13.86;39.57;95375.45;1767156;81;20281;-55
2021/03/14 12:50:10;;;;;;;;;;;;;;;13.58;40.31;95375.17;1776612;80;20222;-53
2021/03/14 12:52:39;;;;;;;;;;;;;;;13.53;40.21;95380.53;1767120;81;20226;-57
2021/03/14 12:55:08;;;;;;;;;;;;;;;13.72;40.06;95391.22;1767158;80;22258;-54
2021/03/14 12:57:38;;;;;;;;;;;;;;;14.23;39.72;95374.25;1765166;79;20244;-54
2021/03/14 13:00:11;;;;;;;;;;;;;;;14.86;37.80;95385.88;1761462;81;20317;-54
2021/03/14 13:02:39;;;;;;;;;;;;;;;15.10;37.60;95379.83;1755919;81;20228;-53
2021/03/14 13:05:07;;;;;;;;;;;;;;;15.34;36.90;95387.28;1762150;80;20222;-54
2021/03/14 13:07:35;;;;;;;;;;;;;;;15.55;36.93;95377.58;1766521;80;21192;-54
2021/03/14 13:10:05;;;;;;;;;;;;;;;15.82;36.71;95394.66;1761081;81;20916;-53